Colima Airport
MMIA : now visible

Airfield :











YOU CAN JOIN US ON...

 
LOGIN :

Register | Disclaimer

   EN    FR    IT 

 









Legend :    VFR   Marginal VFR   IFR   Intensive IFR   Very Intensive IFR
Visi :
Ceiling :
>= 8 km
>= 3000ft
5 to 8 km
1000 to 3000 ft
1500m to 5 km
500 to 1000 ft
800 to 1500m
200 to 500 ft
< 800m
< 200 ft
Symbols :   Thunderstorms  Fog  Heavy snow  Heavy precipitations  Wind > 20 kt






- Airport Elevation : 2467 ft
- IATA code : CLQ


MMIA - Colima

METAR N/A
TAF TAF MMIA
Valid from the 17 at 06:00 until the 18 at 06:00 UTC


170536Z 1706/1806 00000KT 6SM HZ BKN015CB
TEMPO 1706/1709 3SM TSRA
FM171000 00000KT 4SM HZ BKN010
TEMPO 1711/1715 2SM BR HZ BKN008
FM171800 24010KT 6SM HZ BKN020 BKN090
TEMPO 1721/1801 BKN020CB
FM180500 00000KT 6SM HZ SCT015 BKN080
MMFR FIR / North America



MET'MAP, your aeronautical weather chart ! - Copyright ORBIFLY December 2007 - Disclaimer

ORBIFLY MET'MAP TEAM :

Programming & Development : Alexandra Zaïnal
Concept & original design : Baudouin d'Aumeries
Assistance for programming : Marc-Olivier Méhu
Technical & hardware support : Manuel Goepfert

Contact : metmap@orbifly.com




SOURCES & CREDITS :

   NOAA       Earth
Advisory